Stellarton, Canada
Current Conditions -  °F | °C
As of 5:00 PM on Tuesday 25 Nov 2014 (Local Time) from CYYG Reporting Station
Broken Clouds Broken Clouds  
Wind Chill: 54°   Ceiling: 24000
Heat Index: 54°   Visibility: 15mi
Dew Point: 45°   Wind: 12mph
Humidity: 72%   Direction: 240°WSW
Pressure: 29.74"   Gusts: 18mph
Location:  45.57°N, 62.65°W
Report Text: CYYG 252100Z 24010G16KT 15SM BKN240 12/07 A2974 RMK CI6 PRESRR SLP072
Loading
Personal Weather Stations






























Interactive Weather Map New forecast layout! Learn more

10-Day Weather Forecast

Advertisements
Track Severe Weather on mobile